Time;durP1;ratioP1;P1;durP2;ratioP2;P2;SDS_P1;SDS_P2;PMS_P1;PMS_P2;Temp;Humidity;BMP_temperature;BMP_pressure;BME280_temperature;BME280_humidity;BME280_pressure;Samples;Min_cycle;Max_cycle;Signal;HPM_P1;HPM_P2
2023/07/22 00:00:16;;;;;;;4.10;1.70;;;;;;;24.66;89.21;98965.78;5046910;28;20226;-67
2023/07/22 00:02:43;;;;;;;3.10;1.38;;;;;;;24.32;92.49;98981.50;5045368;28;20196;-66
2023/07/22 00:05:11;;;;;;;2.42;1.35;;;;;;;24.23;95.47;98940.91;5044757;28;20203;-67
2023/07/22 00:07:37;;;;;;;5.43;1.55;;;;;;;23.97;98.82;98952.16;5044933;27;20264;-67
2023/07/22 00:10:05;;;;;;;7.28;1.80;;;;;;;23.80;100.00;98950.94;5046297;28;20218;-67
2023/07/22 00:12:34;;;;;;;2.83;1.17;;;;;;;23.62;100.00;98939.25;5046097;28;20235;-67
2023/07/22 00:15:01;;;;;;;3.00;1.40;;;;;;;23.56;100.00;98924.38;5046513;28;20234;-66
2023/07/22 00:17:29;;;;;;;3.88;1.30;;;;;;;23.52;100.00;98922.34;5046138;28;20723;-66
2023/07/22 00:19:56;;;;;;;1.35;1.20;;;;;;;23.42;100.00;98927.97;5046094;28;20675;-66
2023/07/22 00:22:23;;;;;;;1.55;1.20;;;;;;;23.28;100.00;98927.13;5046124;28;20206;-66
2023/07/22 00:24:51;;;;;;;1.27;1.15;;;;;;;23.19;100.00;98918.69;5045969;28;20203;-65
2023/07/22 00:27:17;;;;;;;2.35;1.15;;;;;;;23.11;100.00;98910.22;5046035;28;20196;-67
2023/07/22 00:29:46;;;;;;;2.22;1.17;;;;;;;22.98;100.00;98905.75;5046188;28;20203;-65
2023/07/22 00:32:12;;;;;;;2.40;1.20;;;;;;;22.90;100.00;98885.06;5046011;28;20697;-66
2023/07/22 00:34:39;;;;;;;1.95;1.15;;;;;;;22.86;100.00;98873.41;5046104;28;20672;-66
2023/07/22 00:37:06;;;;;;;1.42;1.30;;;;;;;22.75;100.00;98895.63;5046041;28;20251;-67
2023/07/22 00:39:33;;;;;;;5.28;1.33;;;;;;;22.68;100.00;98926.06;5045834;28;20227;-66
2023/07/22 00:42:00;;;;;;;1.00;0.95;;;;;;;22.64;100.00;98941.28;5046137;28;20211;-66
2023/07/22 00:44:27;;;;;;;4.22;1.58;;;;;;;22.66;100.00;98943.69;5045753;28;20268;-66
2023/07/22 00:46:58;;;;;;;1.15;1.05;;;;;;;22.57;100.00;98946.47;5046222;28;20203;-67
2023/07/22 00:49:27;;;;;;;1.38;1.10;;;;;;;22.58;100.00;98949.88;5045942;28;20252;-66
2023/07/22 00:51:54;;;;;;;3.73;1.37;;;;;;;22.57;100.00;98940.41;5045582;28;20214;-65
2023/07/22 00:54:20;;;;;;;1.42;1.17;;;;;;;22.52;100.00;98942.81;5045679;28;20672;-66
2023/07/22 00:56:48;;;;;;;3.45;1.27;;;;;;;22.46;100.00;98933.16;5044618;28;20622;-66
2023/07/22 00:59:16;;;;;;;1.43;1.20;;;;;;;22.45;100.00;98929.72;5045799;28;20202;-66
2023/07/22 01:01:43;;;;;;;2.43;1.10;;;;;;;22.41;100.00;98935.53;5045737;28;20211;-66
2023/07/22 01:04:11;;;;;;;1.37;0.87;;;;;;;22.38;100.00;98921.88;5045865;28;20211;-66
2023/07/22 01:06:38;;;;;;;2.17;1.02;;;;;;;22.33;100.00;98913.81;5045465;28;20210;-66
2023/07/22 01:09:09;;;;;;;1.63;1.27;;;;;;;22.34;100.00;98907.66;5045614;28;20200;-66
2023/07/22 01:11:35;;;;;;;2.78;1.20;;;;;;;22.37;100.00;98909.06;5045293;28;20252;-66
2023/07/22 01:14:03;;;;;;;1.50;1.00;;;;;;;22.40;100.00;98902.63;5045265;28;20224;-66
2023/07/22 01:16:31;;;;;;;1.20;1.10;;;;;;;22.36;100.00;98916.06;5045044;28;20664;-65
2023/07/22 01:18:58;;;;;;;3.92;1.27;;;;;;;22.33;100.00;98910.44;5045480;28;20200;-66
2023/07/22 01:21:27;;;;;;;3.07;1.30;;;;;;;22.30;100.00;98914.22;5045277;28;20223;-66
2023/07/22 01:23:57;;;;;;;1.73;1.08;;;;;;;22.30;100.00;98927.22;5045325;28;20350;-65
2023/07/22 01:26:24;;;;;;;2.13;1.15;;;;;;;22.26;100.00;98925.22;5045155;28;20203;-66
2023/07/22 01:28:50;;;;;;;1.20;0.87;;;;;;;22.26;100.00;98941.66;5045066;28;20206;-66
2023/07/22 01:31:17;;;;;;;1.10;1.00;;;;;;;22.28;100.00;98946.66;5044990;28;20586;-66
2023/07/22 01:33:44;;;;;;;3.70;1.23;;;;;;;22.23;100.00;98939.41;5045218;28;20233;-66
2023/07/22 01:36:12;;;;;;;1.50;1.17;;;;;;;22.24;100.00;98941.03;5045153;27;20913;-66
2023/07/22 01:38:39;;;;;;;1.80;1.20;;;;;;;22.21;100.00;98935.41;5045298;28;20660;-66
2023/07/22 01:41:07;;;;;;;1.43;1.10;;;;;;;22.16;100.00;98933.31;5045033;28;20228;-66
2023/07/22 01:43:34;;;;;;;1.73;1.10;;;;;;;22.15;100.00;98931.72;5044797;28;20214;-66
2023/07/22 01:46:01;;;;;;;2.57;1.27;;;;;;;22.12;100.00;98927.69;5044841;28;20199;-66
2023/07/22 01:48:28;;;;;;;1.50;0.93;;;;;;;22.10;100.00;98934.06;5044861;28;20714;-66
2023/07/22 01:50:55;;;;;;;3.23;1.23;;;;;;;22.08;100.00;98936.09;5044653;28;20199;-66
2023/07/22 01:53:22;;;;;;;1.10;1.00;;;;;;;22.00;100.00;98928.41;5044716;28;20203;-65
2023/07/22 01:55:49;;;;;;;3.50;1.33;;;;;;;21.90;100.00;98933.91;5044651;28;20568;-66
2023/07/22 01:58:17;;;;;;;2.43;1.20;;;;;;;21.84;100.00;98926.84;5044925;28;20283;-66
2023/07/22 02:00:44;;;;;;;1.43;1.10;;;;;;;21.81;100.00;98928.03;5044701;28;20210;-66
2023/07/22 02:03:10;;;;;;;1.37;1.17;;;;;;;21.70;100.00;98923.34;5044701;28;20203;-66
2023/07/22 02:05:38;;;;;;;2.07;1.20;;;;;;;21.69;100.00;98926.94;5044522;28;20228;-66
2023/07/22 02:08:05;;;;;;;1.30;1.20;;;;;;;21.67;100.00;98923.69;5046602;28;20258;-66
2023/07/22 02:10:32;;;;;;;1.73;1.20;;;;;;;21.64;100.00;98924.06;5048305;28;20591;-66
2023/07/22 02:12:59;;;;;;;1.57;1.10;;;;;;;21.47;100.00;98929.53;5048302;28;20583;-66
2023/07/22 02:15:27;;;;;;;0.80;0.80;;;;;;;21.48;100.00;98940.75;5047990;28;20601;-66
2023/07/22 02:17:55;;;;;;;3.70;1.40;;;;;;;21.57;100.00;98949.22;5047908;28;20333;-66
2023/07/22 02:20:21;;;;;;;1.33;1.00;;;;;;;21.74;100.00;98940.19;5047859;28;20209;-66
2023/07/22 02:22:48;;;;;;;2.37;1.20;;;;;;;21.74;100.00;98929.78;5048323;28;20209;-66
2023/07/22 02:25:15;;;;;;;1.50;1.23;;;;;;;21.73;100.00;98946.41;5048085;28;20682;-66
2023/07/22 02:27:43;;;;;;;2.60;1.60;;;;;;;21.79;100.00;98969.06;5048135;28;20262;-66
2023/07/22 02:30:11;;;;;;;1.40;1.20;;;;;;;21.82;100.00;98963.50;5048354;28;20298;-66
2023/07/22 02:32:40;;;;;;;1.20;1.10;;;;;;;21.78;100.00;98961.44;5048051;28;20206;-66
2023/07/22 02:35:07;;;;;;;1.48;1.23;;;;;;;21.80;100.00;98965.47;5048042;28;20207;-66
2023/07/22 02:37:34;;;;;;;2.07;1.30;;;;;;;21.84;100.00;98971.91;5047910;28;20333;-66
2023/07/22 02:40:07;;;;;;;1.50;1.30;;;;;;;21.89;100.00;98973.97;5047867;28;20643;-65
2023/07/22 02:42:35;;;;;;;3.47;1.52;;;;;;;21.82;100.00;98968.69;5047751;28;20212;-66
2023/07/22 02:45:02;;;;;;;7.23;1.60;;;;;;;21.82;100.00;98957.50;5047947;28;20203;-66
2023/07/22 02:47:29;;;;;;;2.73;1.33;;;;;;;21.73;100.00;98964.63;5047591;28;20203;-66
2023/07/22 02:49:57;;;;;;;1.63;1.20;;;;;;;21.71;100.00;98992.59;5047564;28;20263;-66
2023/07/22 02:52:24;;;;;;;2.22;1.20;;;;;;;21.71;100.00;99003.00;5047246;28;20226;-66
2023/07/22 02:55:07;;;;;;;1.27;1.10;;;;;;;21.73;100.00;98995.00;5047436;28;20199;-66
2023/07/22 02:57:34;;;;;;;1.20;1.00;;;;;;;21.75;100.00;98993.84;5047550;28;20299;-66
2023/07/22 03:00:06;;;;;;;1.07;0.90;;;;;;;21.60;100.00;98995.69;5047502;28;20199;-66
2023/07/22 03:02:33;;;;;;;1.93;1.37;;;;;;;21.64;100.00;98991.72;5047573;28;20302;-66
2023/07/22 03:05:02;;;;;;;4.73;1.13;;;;;;;21.67;100.00;98980.94;5047231;28;20195;-66
2023/07/22 03:07:29;;;;;;;3.10;1.27;;;;;;;21.70;100.00;98975.41;5047396;28;20733;-66
2023/07/22 03:09:56;;;;;;;1.87;1.23;;;;;;;21.72;100.00;98983.78;5047156;28;20206;-66
2023/07/22 03:12:23;;;;;;;2.27;1.00;;;;;;;21.73;100.00;98990.63;5047535;28;20203;-66
2023/07/22 03:14:50;;;;;;;1.50;1.10;;;;;;;21.73;100.00;98990.63;5047121;28;20678;-66
2023/07/22 03:17:18;;;;;;;1.00;0.90;;;;;;;21.76;100.00;98985.06;5046974;28;20238;-66
2023/07/22 03:19:45;;;;;;;3.33;1.23;;;;;;;21.82;100.00;98999.13;5046477;28;20221;-66
2023/07/22 03:22:15;;;;;;;4.37;1.33;;;;;;;21.81;100.00;98995.69;5047219;28;20204;-65
2023/07/22 03:24:42;;;;;;;4.15;0.95;;;;;;;21.83;100.00;98980.72;5047440;27;20183;-65
2023/07/22 03:27:09;;;;;;;1.27;1.10;;;;;;;21.85;100.00;98978.72;5047168;28;20195;-66
2023/07/22 03:29:36;;;;;;;2.10;1.20;;;;;;;21.89;100.00;98977.34;5046870;28;20299;-65
2023/07/22 03:32:03;;;;;;;2.53;1.20;;;;;;;21.88;100.00;98978.38;5046868;28;20208;-66
2023/07/22 03:34:31;;;;;;;1.33;1.17;;;;;;;21.88;100.00;98978.38;5047014;28;20289;-65
2023/07/22 03:36:59;;;;;;;3.80;1.20;;;;;;;21.87;100.00;98968.91;5046717;28;20231;-66
2023/07/22 03:39:27;;;;;;;2.17;1.20;;;;;;;21.87;100.00;98976.72;5046799;28;20207;-66
2023/07/22 03:41:54;;;;;;;2.17;1.63;;;;;;;21.87;100.00;98975.94;5046742;28;20659;-66
2023/07/22 03:44:21;;;;;;;1.70;1.30;;;;;;;21.73;100.00;98979.41;5046602;28;20682;-66
2023/07/22 03:46:48;;;;;;;2.17;1.40;;;;;;;21.78;100.00;98988.25;5046723;28;20207;-66
2023/07/22 03:49:15;;;;;;;1.90;1.20;;;;;;;21.83;100.00;98995.53;5046969;28;20218;-66
2023/07/22 03:51:41;;;;;;;3.10;1.30;;;;;;;21.88;100.00;99003.59;5046796;28;20627;-66
2023/07/22 03:54:08;;;;;;;1.77;1.30;;;;;;;21.88;100.00;98993.19;5046576;28;20215;-66
2023/07/22 03:56:42;;;;;;;1.73;1.40;;;;;;;21.90;100.00;99006.78;5046427;28;20214;-65
2023/07/22 03:59:08;;;;;;;2.23;1.27;;;;;;;21.97;100.00;99001.66;5046611;28;20224;-66
2023/07/22 04:01:35;;;;;;;2.27;1.40;;;;;;;22.01;100.00;99010.72;5046289;28;20655;-65
2023/07/22 04:04:02;;;;;;;4.20;1.30;;;;;;;22.03;100.00;99006.13;5046328;28;20612;-66
2023/07/22 04:06:29;;;;;;;5.50;1.60;;;;;;;22.08;100.00;99008.97;5046499;28;20207;-65
2023/07/22 04:08:56;;;;;;;2.03;1.60;;;;;;;22.05;100.00;98999.75;5046578;28;20199;-65
2023/07/22 04:11:23;;;;;;;1.70;1.42;;;;;;;22.10;100.00;98996.56;5046406;28;20226;-65
2023/07/22 04:13:51;;;;;;;1.83;1.50;;;;;;;22.17;100.00;98992.25;5046334;28;20204;-65
2023/07/22 04:16:18;;;;;;;1.80;1.38;;;;;;;22.26;100.00;98983.31;5046150;28;20199;-65
2023/07/22 04:18:45;;;;;;;2.10;1.50;;;;;;;22.21;100.00;98988.28;5046247;28;20585;-65
2023/07/22 04:21:11;;;;;;;4.00;1.40;;;;;;;22.18;100.00;98996.47;5046587;28;20216;-65
2023/07/22 04:23:38;;;;;;;2.83;1.42;;;;;;;22.25;100.00;98989.53;5046062;28;20207;-66
2023/07/22 04:26:07;;;;;;;2.93;1.50;;;;;;;22.29;100.00;98998.56;5046389;28;20216;-65
2023/07/22 04:28:34;;;;;;;3.42;1.50;;;;;;;22.36;100.00;98994.19;5046082;28;20248;-66
2023/07/22 04:31:03;;;;;;;1.85;1.50;;;;;;;22.45;100.00;98992.25;5044831;28;20679;-66
2023/07/22 04:33:31;;;;;;;2.38;1.60;;;;;;;22.52;100.00;98990.53;5046136;28;20200;-65
2023/07/22 04:36:00;;;;;;;2.40;1.65;;;;;;;22.59;100.00;98995.78;5045895;28;20594;-65
2023/07/22 04:38:28;;;;;;;6.03;1.85;;;;;;;22.63;100.00;98990.97;5046165;28;20322;-66
2023/07/22 04:40:54;;;;;;;3.88;1.50;;;;;;;22.76;100.00;98991.88;5046145;28;20218;-66
2023/07/22 04:43:21;;;;;;;3.42;1.55;;;;;;;22.89;100.00;98993.72;5046201;28;20198;-66
2023/07/22 04:45:48;;;;;;;4.80;1.60;;;;;;;22.98;100.00;98992.63;5045684;28;20541;-66
2023/07/22 04:48:18;;;;;;;2.50;1.52;;;;;;;23.10;100.00;98992.88;5045717;28;20235;-66
2023/07/22 04:50:45;;;;;;;2.00;1.60;;;;;;;23.12;100.00;99000.50;5045754;28;20208;-66
2023/07/22 04:53:14;;;;;;;4.07;1.67;;;;;;;23.30;100.00;99013.00;5045718;28;20264;-66
2023/07/22 04:55:41;;;;;;;2.58;1.77;;;;;;;23.44;100.00;99010.25;5045722;28;20203;-66
2023/07/22 04:58:08;;;;;;;4.57;1.85;;;;;;;23.63;100.00;99008.72;5045655;28;20532;-66
2023/07/22 05:00:35;;;;;;;3.03;1.67;;;;;;;23.83;100.00;99014.00;5045501;28;20315;-66
2023/07/22 05:03:02;;;;;;;2.20;1.63;;;;;;;23.99;100.00;99017.25;5045772;28;20235;-66
2023/07/22 05:05:30;;;;;;;4.05;1.63;;;;;;;24.12;100.00;99018.06;5045375;28;20199;-66
2023/07/22 05:07:57;;;;;;;2.22;1.70;;;;;;;24.32;100.00;99022.50;5045439;28;20617;-66
2023/07/22 05:10:24;;;;;;;2.92;1.70;;;;;;;24.46;100.00;99024.09;5045270;28;20747;-66
2023/07/22 05:12:51;;;;;;;2.83;1.55;;;;;;;24.54;100.00;99020.50;5045445;27;20207;-66
2023/07/22 05:15:18;;;;;;;2.05;1.55;;;;;;;24.72;100.00;99017.25;5045288;28;20200;-66
2023/07/22 05:17:45;;;;;;;3.42;1.95;;;;;;;24.93;100.00;99019.63;5045225;28;20250;-66
2023/07/22 05:20:12;;;;;;;3.03;1.90;;;;;;;25.14;100.00;99021.19;5045577;28;20203;-66
2023/07/22 05:22:41;;;;;;;11.65;2.17;;;;;;;25.29;100.00;99034.03;5045635;27;20565;-66
2023/07/22 05:25:09;;;;;;;3.90;2.28;;;;;;;25.48;100.00;99033.13;5045029;28;20196;-66
2023/07/22 05:27:36;;;;;;;2.50;1.70;;;;;;;25.59;100.00;99038.72;5045165;28;20216;-66
2023/07/22 05:30:03;;;;;;;4.00;2.08;;;;;;;25.74;100.00;99036.59;5045218;28;20621;-66
2023/07/22 05:32:30;;;;;;;3.20;1.80;;;;;;;25.85;99.54;99033.34;5045201;28;20199;-66
2023/07/22 05:34:57;;;;;;;4.70;2.00;;;;;;;25.97;98.90;99036.09;5043802;28;20663;-66
2023/07/22 05:37:24;;;;;;;4.88;1.65;;;;;;;26.09;97.29;99044.06;5044950;28;20199;-66
2023/07/22 05:39:52;;;;;;;3.75;2.45;;;;;;;26.20;98.44;99035.53;5044669;28;20593;-66
2023/07/22 05:42:19;;;;;;;4.78;2.10;;;;;;;26.32;95.75;99049.53;5044493;28;20196;-66
2023/07/22 05:44:46;;;;;;;4.47;2.38;;;;;;;26.45;93.10;99053.09;5045030;28;20563;-66
2023/07/22 05:47:13;;;;;;;4.88;2.30;;;;;;;26.64;92.22;99062.63;5044892;28;20291;-66
2023/07/22 05:49:40;;;;;;;8.27;2.10;;;;;;;26.81;91.49;99063.66;5045037;28;20260;-65
2023/07/22 05:52:08;;;;;;;4.03;2.00;;;;;;;27.04;92.04;99062.25;5044797;28;20223;-66
2023/07/22 05:54:35;;;;;;;4.00;1.95;;;;;;;27.27;91.85;99056.34;5045027;27;20211;-66
2023/07/22 05:57:03;;;;;;;4.40;2.10;;;;;;;27.40;91.27;99055.38;5044979;28;20886;-66
2023/07/22 05:59:31;;;;;;;4.93;2.25;;;;;;;27.45;91.68;99052.91;5044656;28;20242;-66
2023/07/22 06:01:57;;;;;;;2.85;2.20;;;;;;;27.50;90.86;99048.59;5044761;28;20211;-66
2023/07/22 06:04:26;;;;;;;3.00;2.00;;;;;;;27.62;90.91;99058.34;5044634;28;20207;-66
2023/07/22 06:06:53;;;;;;;2.40;1.98;;;;;;;27.83;94.22;99064.97;5044828;28;20200;-66
2023/07/22 06:09:21;;;;;;;4.13;1.80;;;;;;;27.97;88.89;99066.38;5044541;28;20200;-66
2023/07/22 06:11:48;;;;;;;4.28;2.13;;;;;;;27.97;86.15;99082.16;5044704;27;20235;-66
2023/07/22 06:14:16;;;;;;;3.67;2.20;;;;;;;28.08;84.95;99086.66;5044751;28;20594;-66
2023/07/22 06:16:43;;;;;;;3.53;2.20;;;;;;;28.21;83.66;99093.53;5044470;28;20256;-66
2023/07/22 06:19:10;;;;;;;4.50;2.20;;;;;;;28.28;81.65;99096.06;5044696;28;20235;-66
2023/07/22 06:21:36;;;;;;;3.28;1.90;;;;;;;28.45;85.28;99094.41;5044826;28;20206;-66
2023/07/22 06:24:03;;;;;;;5.28;2.60;;;;;;;28.75;89.16;99094.31;5044562;28;20672;-65
2023/07/22 06:26:30;;;;;;;4.43;2.30;;;;;;;28.97;82.56;99086.59;5044406;28;20214;-66
2023/07/22 06:28:57;;;;;;;4.57;2.00;;;;;;;29.07;76.85;99076.34;5044602;28;20435;-65
2023/07/22 06:31:30;;;;;;;3.60;1.80;;;;;;;29.08;76.91;99082.41;5044424;28;20207;-66
2023/07/22 06:33:57;;;;;;;3.30;2.20;;;;;;;29.24;77.57;99075.63;5044476;28;20206;-66
2023/07/22 06:36:24;;;;;;;2.85;2.00;;;;;;;29.33;77.21;99079.50;5044633;28;20228;-66
2023/07/22 06:38:51;;;;;;;3.95;2.20;;;;;;;29.42;75.65;99083.34;5044286;28;20232;-66
2023/07/22 06:41:18;;;;;;;2.35;2.00;;;;;;;29.55;77.08;99082.28;5044580;28;20206;-65
2023/07/22 06:43:46;;;;;;;2.25;1.80;;;;;;;29.69;73.16;99082.81;5044324;27;20211;-66
2023/07/22 06:46:12;;;;;;;2.80;1.95;;;;;;;29.95;76.32;99084.88;5044354;28;20289;-67
2023/07/22 06:48:41;;;;;;;2.47;1.90;;;;;;;30.18;71.65;99086.59;5044379;28;20195;-67
2023/07/22 06:51:08;;;;;;;2.47;1.90;;;;;;;30.32;69.42;99081.84;5043785;28;20199;-66
2023/07/22 06:53:35;;;;;;;2.22;1.92;;;;;;;30.36;63.68;99079.50;5043629;28;20479;-66
2023/07/22 06:56:02;;;;;;;3.67;2.20;;;;;;;30.50;69.44;99080.00;5040299;28;20203;-65
2023/07/22 06:58:29;;;;;;;2.97;1.83;;;;;;;30.63;66.55;99077.00;5045027;28;20743;-64
2023/07/22 07:00:56;;;;;;;2.42;1.90;;;;;;;30.57;59.84;99094.59;5046007;28;20216;-65
2023/07/22 07:03:23;;;;;;;3.70;1.98;;;;;;;30.50;60.32;99090.53;5047350;28;20256;-65
2023/07/22 07:05:54;;;;;;;3.25;1.98;;;;;;;30.67;65.15;99083.41;5047238;28;20207;-64
2023/07/22 07:08:21;;;;;;;3.92;2.00;;;;;;;30.93;66.01;99081.16;5047069;28;20218;-64
2023/07/22 07:10:48;;;;;;;3.45;2.00;;;;;;;30.93;63.30;99079.31;5046224;28;20204;-64
2023/07/22 07:13:15;;;;;;;3.45;1.90;;;;;;;31.00;65.30;99076.47;5047204;28;20215;-66
2023/07/22 07:15:42;;;;;;;1.90;1.70;;;;;;;30.98;63.14;99084.66;5047237;28;20199;-64
2023/07/22 07:18:08;;;;;;;3.28;1.85;;;;;;;31.11;62.86;99065.81;5047273;28;20238;-63
2023/07/22 07:20:35;;;;;;;2.72;1.92;;;;;;;31.30;62.70;99066.31;5047078;28;20591;-65
2023/07/22 07:23:03;;;;;;;2.50;2.08;;;;;;;31.50;64.46;99059.66;5047185;28;20202;-65
2023/07/22 07:25:30;;;;;;;3.38;2.10;;;;;;;31.48;61.99;99045.91;5047250;28;20204;-65
2023/07/22 07:27:57;;;;;;;4.18;2.30;;;;;;;31.63;66.01;99038.13;5047041;28;20712;-67
2023/07/22 07:30:24;;;;;;;2.25;1.80;;;;;;;31.71;57.30;99050.91;5046876;28;20200;-63
2023/07/22 07:32:51;;;;;;;2.10;1.65;;;;;;;31.86;56.10;99052.09;5047054;28;20196;-65
2023/07/22 07:35:18;;;;;;;2.50;1.95;;;;;;;32.04;56.41;99041.16;5047458;28;20255;-64
2023/07/22 07:37:44;;;;;;;3.70;2.40;;;;;;;32.38;52.47;99044.31;5047006;28;20199;-65
2023/07/22 07:40:14;;;;;;;2.67;1.67;;;;;;;32.24;46.45;99028.09;5046963;28;20250;-64
2023/07/22 07:42:40;;;;;;;2.08;1.50;;;;;;;31.99;49.58;99017.31;5046846;28;20796;-65
2023/07/22 07:45:09;;;;;;;3.00;1.67;;;;;;;31.89;47.47;99006.63;5046851;28;20605;-64
2023/07/22 07:47:35;;;;;;;2.97;1.65;;;;;;;31.78;47.77;99005.75;5046971;28;20199;-64
2023/07/22 07:50:03;;;;;;;2.40;1.45;;;;;;;31.75;45.27;99009.69;5046651;28;20196;-63
2023/07/22 07:52:29;;;;;;;2.35;1.77;;;;;;;32.04;48.49;99014.72;5046548;28;20192;-64
2023/07/22 07:54:56;;;;;;;3.53;1.55;;;;;;;32.21;46.74;99006.63;5095903;27;20192;-64
2023/07/22 07:57:24;;;;;;;3.90;1.60;;;;;;;32.15;46.55;99002.38;5151711;27;20204;-64
2023/07/22 07:59:51;;;;;;;2.28;1.42;;;;;;;32.09;46.18;99006.81;5151260;27;20228;-65
2023/07/22 08:02:18;;;;;;;2.00;1.45;;;;;;;32.09;46.14;99013.97;5151415;27;20260;-65
2023/07/22 08:04:46;;;;;;;2.45;1.35;;;;;;;32.30;45.57;99007.75;5151206;27;20192;-65
2023/07/22 08:07:16;;;;;;;1.95;1.55;;;;;;;32.38;45.85;99019.72;5151228;27;20462;-65
2023/07/22 08:09:43;;;;;;;5.90;2.50;;;;;;;32.57;48.17;99020.09;5151373;27;20215;-65
2023/07/22 08:12:10;;;;;;;4.18;1.63;;;;;;;32.65;48.84;99028.38;5151350;27;20196;-64
2023/07/22 08:14:38;;;;;;;2.75;1.73;;;;;;;32.73;49.15;99026.28;5151239;27;20207;-64
2023/07/22 08:17:05;;;;;;;2.58;1.52;;;;;;;32.79;48.33;99027.91;5151303;27;20300;-65
2023/07/22 08:19:32;;;;;;;2.80;1.52;;;;;;;32.85;45.10;99024.22;5150963;27;20232;-65
2023/07/22 08:21:59;;;;;;;3.25;2.25;;;;;;;32.97;49.59;99019.50;5151176;27;20192;-65
2023/07/22 08:24:26;;;;;;;4.72;2.20;;;;;;;33.23;46.41;99035.53;5151223;27;20205;-65
2023/07/22 08:26:53;;;;;;;3.05;2.33;;;;;;;33.30;47.46;99025.47;5151430;27;20193;-66
2023/07/22 08:29:20;;;;;;;4.85;2.53;;;;;;;33.43;45.93;99027.63;5150949;27;20609;-65
2023/07/22 08:31:48;;;;;;;4.65;1.85;;;;;;;33.29;47.56;99026.53;5151218;27;20200;-65
2023/07/22 08:34:15;;;;;;;3.95;2.15;;;;;;;33.47;47.49;99043.78;5150767;27;20687;-65
2023/07/22 08:36:42;;;;;;;5.57;2.20;;;;;;;33.56;46.64;99037.72;5150727;27;20211;-65
2023/07/22 08:39:09;;;;;;;4.60;2.78;;;;;;;33.85;47.60;99039.88;5134955;27;20228;-65
2023/07/22 08:41:37;;;;;;;14.82;7.75;;;;;;;34.13;47.75;99051.06;5150549;27;20204;-65
2023/07/22 08:44:06;;;;;;;6.93;2.63;;;;;;;34.22;47.78;99044.16;5150597;27;20192;-65
2023/07/22 08:46:34;;;;;;;5.75;3.47;;;;;;;34.35;46.93;99038.28;5150396;27;20692;-66
2023/07/22 08:49:05;;;;;;;4.68;3.15;;;;;;;34.39;44.48;99055.28;5150669;27;20687;-66
2023/07/22 08:51:33;;;;;;;4.97;2.40;;;;;;;34.30;41.98;99046.28;5150201;27;20761;-65
2023/07/22 08:54:02;;;;;;;4.82;2.63;;;;;;;34.42;42.73;99046.00;5150208;27;20200;-65
2023/07/22 08:56:29;;;;;;;5.25;2.55;;;;;;;34.52;42.68;99053.13;5150397;27;20472;-65
2023/07/22 08:58:56;;;;;;;4.30;2.50;;;;;;;34.59;44.53;99048.34;5150242;27;20287;-65
2023/07/22 09:01:23;;;;;;;5.45;2.10;;;;;;;34.43;40.96;99061.63;5150135;27;20207;-65
2023/07/22 09:03:52;;;;;;;3.50;1.77;;;;;;;34.45;40.27;99053.41;5150191;27;20616;-65
2023/07/22 09:06:20;;;;;;;7.65;3.65;;;;;;;34.30;39.82;99046.28;5150028;27;20207;-65
2023/07/22 09:08:48;;;;;;;8.52;3.83;;;;;;;34.45;40.47;99048.91;5150293;27;20302;-65
2023/07/22 09:11:16;;;;;;;6.55;3.40;;;;;;;34.59;41.90;99054.47;5150225;27;20199;-65
2023/07/22 09:13:45;;;;;;;2.05;1.63;;;;;;;34.78;41.25;99057.34;5150289;27;20291;-65
2023/07/22 09:16:14;;;;;;;5.70;2.13;;;;;;;34.86;42.99;99048.81;5150018;27;20196;-65
2023/07/22 09:18:40;;;;;;;4.82;2.55;;;;;;;34.98;41.51;99051.16;5149420;27;20223;-65
2023/07/22 09:21:08;;;;;;;5.18;3.17;;;;;;;34.84;39.63;99042.97;5083722;27;20215;-64
2023/07/22 09:23:38;;;;;;;4.05;1.90;;;;;;;34.82;45.51;99037.16;5148767;27;20792;-66
2023/07/22 09:26:12;;;;;;;6.60;3.28;;;;;;;35.00;41.77;99046.38;5061250;27;20208;-63
2023/07/22 09:28:55;;;;;;;4.97;2.13;;;;;;;34.98;40.21;99039.75;5026211;28;20327;-63
2023/07/22 09:31:24;;;;;;;6.63;3.33;;;;;;;35.08;39.73;99040.53;5025300;28;20204;-64
2023/07/22 09:33:53;;;;;;;5.55;2.58;;;;;;;35.15;40.44;99032.25;5045970;27;20217;-64
2023/07/22 09:36:21;;;;;;;2.83;1.70;;;;;;;35.32;41.43;99030.03;5028573;28;20227;-66
2023/07/22 09:39:00;;;;;;;16.80;7.78;;;;;;;35.49;39.33;99024.34;5026941;28;20613;-67
2023/07/22 09:41:29;;;;;;;14.40;5.30;;;;;;;35.49;40.08;99024.34;5025134;28;20208;-67
2023/07/22 09:43:56;;;;;;;4.38;2.40;;;;;;;35.70;38.69;99022.34;5024958;28;20218;-66
2023/07/22 09:46:32;;;;;;;3.13;1.70;;;;;;;35.80;40.06;99019.59;5025021;28;20598;-66
2023/07/22 09:49:03;;;;;;;3.03;2.20;;;;;;;35.99;39.50;99021.59;5025919;28;20204;-67
2023/07/22 09:51:35;;;;;;;4.40;1.70;;;;;;;36.02;38.04;99021.03;5024917;28;20684;-66
2023/07/22 09:54:06;;;;;;;2.47;1.70;;;;;;;36.12;40.38;99034.25;5024949;28;20592;-67
2023/07/22 09:56:43;;;;;;;3.90;1.73;;;;;;;36.32;38.78;99024.50;5025119;28;20418;-66
2023/07/22 09:59:11;;;;;;;3.40;2.05;;;;;;;36.50;39.96;99026.44;5022980;28;20224;-66
2023/07/22 10:01:39;;;;;;;1.77;1.52;;;;;;;36.30;39.57;99016.00;5023542;28;20776;-64
2023/07/22 10:04:07;;;;;;;2.28;1.50;;;;;;;36.58;44.05;99020.50;5024177;28;20261;-64
2023/07/22 10:06:35;;;;;;;3.53;1.80;;;;;;;36.16;39.77;99019.34;5023749;28;20205;-65
2023/07/22 10:09:07;;;;;;;2.00;1.42;;;;;;;36.30;39.41;99023.97;5024405;28;20204;-64
2023/07/22 10:11:35;;;;;;;1.88;1.55;;;;;;;36.41;39.37;99017.47;5024692;28;20208;-64
2023/07/22 10:14:03;;;;;;;2.05;1.58;;;;;;;36.52;42.47;99016.31;5033148;28;20203;-66
2023/07/22 10:16:31;;;;;;;3.33;2.00;;;;;;;36.42;39.23;99027.03;5028954;28;20217;-63
2023/07/22 10:18:59;;;;;;;2.40;1.80;;;;;;;36.42;40.68;99029.69;5040301;27;20215;-66
2023/07/22 10:21:26;;;;;;;2.80;1.73;;;;;;;36.49;39.59;99024.84;5044026;28;20607;-65
2023/07/22 10:23:53;;;;;;;2.20;1.80;;;;;;;36.62;40.92;99018.84;5044550;28;20200;-65
2023/07/22 10:26:21;;;;;;;2.42;1.60;;;;;;;36.59;39.76;99024.75;5044885;28;20203;-65
2023/07/22 10:28:49;;;;;;;1.95;1.55;;;;;;;36.95;40.28;99021.69;5046021;28;20204;-65
2023/07/22 10:31:18;;;;;;;2.83;1.58;;;;;;;36.93;39.17;99021.16;5047866;28;20207;-64
2023/07/22 10:33:46;;;;;;;2.83;1.85;;;;;;;36.92;39.92;99011.59;5048186;28;20199;-64
2023/07/22 10:36:16;;;;;;;2.53;1.75;;;;;;;36.76;40.64;99008.31;5048575;28;20196;-63
2023/07/22 10:38:43;;;;;;;2.03;1.70;;;;;;;36.83;39.97;99013.28;5048042;28;20271;-63
2023/07/22 10:41:16;;;;;;;4.22;1.50;;;;;;;36.74;41.04;99021.09;5047668;28;20234;-63
2023/07/22 10:43:55;;;;;;;2.20;1.73;;;;;;;36.78;39.71;99037.34;5047747;28;20203;-63
2023/07/22 10:46:33;;;;;;;3.10;1.98;;;;;;;36.86;42.18;99034.84;5047716;28;20199;-60
2023/07/22 10:49:10;;;;;;;2.08;1.58;;;;;;;36.86;39.86;99042.06;5047802;28;20262;-61
2023/07/22 10:51:37;;;;;;;4.72;1.80;;;;;;;36.52;36.95;99034.97;5047800;28;20605;-62
2023/07/22 10:54:12;;;;;;;2.80;1.90;;;;;;;36.54;38.48;99032.00;5047673;28;20200;-62
2023/07/22 10:56:39;;;;;;;4.18;1.88;;;;;;;36.69;40.53;99021.97;5047703;28;20203;-60
2023/07/22 10:59:11;;;;;;;4.40;1.75;;;;;;;36.83;38.38;99021.28;5047322;28;20234;-62
2023/07/22 11:01:39;;;;;;;3.45;1.70;;;;;;;36.90;36.11;99019.84;5047741;28;20212;-60
2023/07/22 11:04:11;;;;;;;4.30;1.70;;;;;;;37.14;39.62;99009.16;5047732;28;20632;-60
2023/07/22 11:06:40;;;;;;;6.88;1.80;;;;;;;37.29;39.03;99010.03;5047536;28;20243;-60
2023/07/22 11:09:07;;;;;;;3.40;1.98;;;;;;;37.29;36.65;99020.69;5047633;28;20290;-60
2023/07/22 11:11:39;;;;;;;4.22;2.00;;;;;;;37.19;36.16;99018.97;5047050;28;20207;-65
2023/07/22 11:14:18;;;;;;;4.28;1.58;;;;;;;37.09;36.68;99016.44;5047343;28;20591;-62
2023/07/22 11:16:46;;;;;;;4.40;1.77;;;;;;;37.20;36.51;99022.44;5046846;28;20206;-61
2023/07/22 11:19:14;;;;;;;2.38;1.60;;;;;;;37.32;39.84;99015.59;5046809;28;20196;-61
2023/07/22 11:21:41;;;;;;;2.60;1.73;;;;;;;37.53;38.96;99010.00;5046064;28;20200;-61
2023/07/22 11:24:08;;;;;;;2.65;1.67;;;;;;;37.45;35.45;99003.41;5047090;28;20203;-61
2023/07/22 11:26:35;;;;;;;3.22;2.38;;;;;;;37.50;36.64;98995.34;5076239;27;20603;-62
2023/07/22 11:29:03;;;;;;;3.05;1.75;;;;;;;37.43;36.19;99002.88;5047034;28;20584;-61
2023/07/22 11:31:36;;;;;;;4.28;2.15;;;;;;;37.64;37.79;99005.25;5046133;28;20678;-62